Time;durP1;ratioP1;P1;durP2;ratioP2;P2;SDS_P1;SDS_P2;PMS_P1;PMS_P2;Temp;Humidity;BMP_temperature;BMP_pressure;BME280_temperature;BME280_humidity;BME280_pressure;Samples;Min_cycle;Max_cycle;Signal;HPM_P1;HPM_P2
2022/09/08 00:00:46;;;;;;;8.13;3.55;;;;;;;-145.01;100.00;64805.59;5050035;28;20275;-54
2022/09/08 00:03:15;;;;;;;8.15;3.90;;;;;;;-145.01;100.00;64805.59;5087667;28;20079;-55
2022/09/08 00:05:57;;;;;;;6.72;3.17;;;;;;;-145.01;100.00;64805.59;5054674;28;20040;-56
2022/09/08 00:08:23;;;;;;;5.88;2.97;;;;;;;-145.01;100.00;64805.59;5059598;28;20102;-55
2022/09/08 00:10:50;;;;;;;8.00;3.50;;;;;;;-145.01;100.00;64805.59;5055936;28;20626;-57
2022/09/08 00:13:15;;;;;;;7.40;3.80;;;;;;;-145.01;100.00;64805.59;5036188;28;20423;-55
2022/09/08 00:15:41;;;;;;;6.97;4.05;;;;;;;-145.01;100.00;64805.59;5085345;28;20028;-56
2022/09/08 00:18:06;;;;;;;9.65;4.13;;;;;;;-145.01;100.00;64805.59;5054531;28;20029;-55
2022/09/08 00:20:32;;;;;;;6.57;3.50;;;;;;;-145.01;100.00;64805.59;5057132;28;20113;-56
2022/09/08 00:22:57;;;;;;;6.00;3.92;;;;;;;-145.01;100.00;64805.59;5054679;28;20024;-55
2022/09/08 00:25:23;;;;;;;14.93;3.88;;;;;;;-145.01;100.00;64805.59;5056334;28;20422;-56
2022/09/08 00:27:48;;;;;;;13.35;4.07;;;;;;;-145.01;100.00;64805.59;5085552;28;20017;-56
2022/09/08 00:30:14;;;;;;;7.90;3.60;;;;;;;-145.01;100.00;64805.59;5049678;28;20025;-59
2022/09/08 00:32:39;;;;;;;11.10;3.47;;;;;;;-145.01;100.00;64805.59;5055320;28;20021;-56
2022/09/08 00:35:14;;;;;;;6.88;3.47;;;;;;;-145.01;100.00;64805.59;5049970;28;20041;-55
2022/09/08 00:37:40;;;;;;;11.32;3.67;;;;;;;-145.01;100.00;64805.59;5055001;28;20164;-56
2022/09/08 00:40:06;;;;;;;9.88;3.95;;;;;;;-145.01;100.00;64805.59;5054787;28;20072;-56
2022/09/08 00:42:31;;;;;;;7.85;3.50;;;;;;;-145.01;100.00;64805.59;5049122;28;20048;-55
2022/09/08 00:44:57;;;;;;;8.27;3.63;;;;;;;-145.01;100.00;64805.59;5049565;28;20059;-57
2022/09/08 00:47:27;;;;;;;5.35;3.60;;;;;;;-145.01;100.00;64805.59;5049370;28;20459;-56
2022/09/08 00:49:59;;;;;;;10.23;3.85;;;;;;;-145.01;100.00;64805.59;5049156;28;20025;-56
2022/09/08 00:52:24;;;;;;;8.38;4.47;;;;;;;-145.01;100.00;64805.59;5059256;28;20029;-56
2022/09/08 00:54:50;;;;;;;7.28;3.30;;;;;;;-145.01;100.00;64805.59;5036248;28;20050;-57
2022/09/08 00:57:16;;;;;;;6.82;3.63;;;;;;;-145.01;100.00;64805.59;5087684;28;20024;-56
2022/09/08 00:59:42;;;;;;;8.40;3.90;;;;;;;-145.01;100.00;64805.59;5053494;28;20025;-55
2022/09/08 01:02:33;;;;;;;9.57;4.35;;;;;;;-145.01;100.00;64805.59;5053962;28;20383;-55
2022/09/08 01:05:02;;;;;;;7.55;4.15;;;;;;;-145.01;100.00;64805.59;5047373;28;20045;-57
2022/09/08 01:14:03;;;;;;;7.32;4.13;;;;;;;-145.01;100.00;64805.59;5051617;28;20055;-55
2022/09/08 01:16:35;;;;;;;5.72;3.88;;;;;;;-145.01;100.00;64805.59;5058019;28;20475;-55
2022/09/08 01:19:01;;;;;;;6.93;3.58;;;;;;;-145.01;100.00;64805.59;5052652;28;20032;-55
2022/09/08 01:21:31;;;;;;;6.90;3.53;;;;;;;-145.01;100.00;64805.59;5057133;28;20044;-56
2022/09/08 01:24:17;;;;;;;9.65;3.90;;;;;;;-145.01;100.00;64805.59;5054111;28;20056;-55
2022/09/08 01:26:50;;;;;;;9.38;4.50;;;;;;;-145.01;100.00;64805.59;5053315;28;20037;-56
2022/09/08 01:29:15;;;;;;;8.60;3.88;;;;;;;-145.01;100.00;64805.59;5089736;28;20032;-55
2022/09/08 01:31:42;;;;;;;9.93;4.03;;;;;;;-145.01;100.00;64805.59;5024899;28;20037;-57
2022/09/08 01:34:07;;;;;;;9.07;4.70;;;;;;;-145.01;100.00;64805.59;5056204;28;20020;-56
2022/09/08 01:36:32;;;;;;;7.32;4.03;;;;;;;-145.01;100.00;64805.59;5052620;28;20498;-56
2022/09/08 01:38:58;;;;;;;15.25;4.30;;;;;;;-145.01;100.00;64805.59;5052483;28;20415;-57
2022/09/08 01:41:23;;;;;;;19.40;3.80;;;;;;;-145.01;100.00;64805.59;5084443;28;20471;-56
2022/09/08 01:43:49;;;;;;;5.47;3.63;;;;;;;-145.01;100.00;64805.59;5051763;28;20029;-57
2022/09/08 01:46:14;;;;;;;7.47;3.90;;;;;;;-145.01;100.00;64805.59;5054240;28;20031;-55
2022/09/08 01:48:40;;;;;;;7.78;3.75;;;;;;;-145.01;100.00;64805.59;5051777;28;20471;-55
2022/09/08 01:51:06;;;;;;;6.13;3.80;;;;;;;-145.01;100.00;64805.59;5058578;28;20024;-55
2022/09/08 01:53:32;;;;;;;8.63;3.75;;;;;;;-145.01;100.00;64805.59;5059101;28;20035;-55
2022/09/08 01:55:57;;;;;;;9.13;4.30;;;;;;;-145.01;100.00;64805.59;5056749;28;20029;-56
2022/09/08 01:58:23;;;;;;;10.68;4.43;;;;;;;-145.01;100.00;64805.59;5056835;28;20025;-56
2022/09/08 02:00:49;;;;;;;9.77;4.10;;;;;;;-145.01;100.00;64805.59;5056907;28;20525;-56
2022/09/08 02:03:14;;;;;;;13.00;4.38;;;;;;;-145.01;100.00;64805.59;5052011;28;20036;-56
2022/09/08 02:05:41;;;;;;;9.40;4.00;;;;;;;-145.01;100.00;64805.59;5056830;28;20395;-56
2022/09/08 02:08:06;;;;;;;11.13;4.43;;;;;;;-145.01;100.00;64805.59;5059098;28;20036;-55
2022/09/08 02:10:32;;;;;;;7.90;4.22;;;;;;;-145.01;100.00;64805.59;5054778;28;20029;-55
2022/09/08 02:12:57;;;;;;;8.43;4.00;;;;;;;-145.01;100.00;64805.59;5055096;28;20430;-56
2022/09/08 02:15:23;;;;;;;7.13;4.53;;;;;;;-145.01;100.00;64805.59;5050546;28;20032;-55
2022/09/08 02:17:48;;;;;;;11.07;4.70;;;;;;;-145.01;100.00;64805.59;5057829;28;20157;-55
2022/09/08 02:20:15;;;;;;;10.43;4.45;;;;;;;-145.01;100.00;64805.59;5051177;28;20028;-55
2022/09/08 02:22:41;;;;;;;7.15;4.70;;;;;;;-145.01;100.00;64805.59;5060276;28;20387;-55
2022/09/08 02:25:06;;;;;;;7.05;4.60;;;;;;;-145.01;100.00;64805.59;5054551;28;20128;-55
2022/09/08 02:27:32;;;;;;;10.55;5.50;;;;;;;-145.01;100.00;64805.59;5050975;28;20111;-51
2022/09/08 02:29:57;;;;;;;15.90;5.38;;;;;;;-145.01;100.00;64805.59;5083600;28;20043;-55
2022/09/08 02:32:23;;;;;;;8.48;4.68;;;;;;;-145.01;100.00;64805.59;5055919;28;20650;-54
2022/09/08 02:34:48;;;;;;;11.40;5.15;;;;;;;-145.01;100.00;64805.59;5054303;28;20044;-53
2022/09/08 02:37:14;;;;;;;10.88;5.07;;;;;;;-145.01;100.00;64805.59;5062061;28;20078;-53
2022/09/08 02:39:39;;;;;;;10.52;4.93;;;;;;;-145.01;100.00;64805.59;5058448;28;20032;-54
2022/09/08 02:42:06;;;;;;;10.10;4.72;;;;;;;-145.01;100.00;64805.59;5054981;28;20052;-54
2022/09/08 02:44:32;;;;;;;13.52;5.10;;;;;;;-145.01;100.00;64805.59;5061963;28;20053;-54
2022/09/08 02:46:57;;;;;;;10.35;4.75;;;;;;;-145.01;100.00;64805.59;5087862;28;20078;-54
2022/09/08 02:49:23;;;;;;;11.25;4.78;;;;;;;-145.01;100.00;64805.59;5054184;28;20477;-54
2022/09/08 02:51:48;;;;;;;9.98;5.13;;;;;;;-145.01;100.00;64805.59;5060784;28;20043;-54
2022/09/08 02:54:14;;;;;;;9.80;4.97;;;;;;;-145.01;100.00;64805.59;5058022;28;20044;-54
2022/09/08 02:56:39;;;;;;;12.13;5.05;;;;;;;-145.01;100.00;64805.59;5051071;28;20025;-55
2022/09/08 02:59:04;;;;;;;12.45;4.75;;;;;;;-145.01;100.00;64805.59;5054810;28;20039;-54
2022/09/08 03:01:30;;;;;;;15.20;5.18;;;;;;;-145.01;100.00;64805.59;5067509;28;20033;-55
2022/09/08 03:03:55;;;;;;;10.43;5.40;;;;;;;-145.01;100.00;64805.59;5055674;28;20048;-55
2022/09/08 03:06:21;;;;;;;13.63;5.72;;;;;;;-145.01;100.00;64805.59;5055448;28;20163;-55
2022/09/08 03:08:46;;;;;;;15.35;5.60;;;;;;;-145.01;100.00;64805.59;5056373;28;20037;-54
2022/09/08 03:11:12;;;;;;;8.93;5.20;;;;;;;-145.01;100.00;64805.59;5053855;28;20462;-55
2022/09/08 03:13:39;;;;;;;10.60;5.15;;;;;;;-145.01;100.00;64805.59;5050106;28;20013;-54
2022/09/08 03:16:05;;;;;;;13.60;5.38;;;;;;;-145.01;100.00;64805.59;5050503;28;20021;-55
2022/09/08 03:18:31;;;;;;;11.50;5.65;;;;;;;-145.01;100.00;64805.59;5050782;28;20068;-54
2022/09/08 03:21:07;;;;;;;9.18;4.90;;;;;;;-145.01;100.00;64805.59;5082810;28;20029;-55
2022/09/08 03:23:33;;;;;;;15.90;5.70;;;;;;;-145.01;100.00;64805.59;5043154;28;20025;-54
2022/09/08 03:26:03;;;;;;;9.15;5.45;;;;;;;-145.01;100.00;64805.59;5052172;28;20356;-56
2022/09/08 03:28:34;;;;;;;14.30;6.55;;;;;;;-145.01;100.00;64805.59;5092859;28;20029;-58
2022/09/08 03:31:00;;;;;;;12.20;6.25;;;;;;;-145.01;100.00;64805.59;5062297;28;20153;-57
2022/09/08 03:33:25;;;;;;;9.60;6.05;;;;;;;-145.01;100.00;64805.59;5042420;28;20494;-56
2022/09/08 03:35:51;;;;;;;12.05;6.10;;;;;;;-145.01;100.00;64805.59;5053293;28;20482;-56
2022/09/08 03:38:17;;;;;;;11.20;5.90;;;;;;;-145.01;100.00;64805.59;5050385;28;20078;-55
2022/09/08 03:40:42;;;;;;;9.88;5.80;;;;;;;-145.01;100.00;64805.59;5049902;28;20115;-57
2022/09/08 03:43:08;;;;;;;11.40;5.88;;;;;;;-145.01;100.00;64805.59;5055035;28;20075;-57
2022/09/08 03:45:33;;;;;;;12.95;6.05;;;;;;;-145.01;100.00;64805.59;5057943;28;20044;-56
2022/09/08 03:47:59;;;;;;;12.38;5.75;;;;;;;-145.01;100.00;64805.59;5055942;28;20374;-54
2022/09/08 03:50:24;;;;;;;11.60;5.88;;;;;;;-145.01;100.00;64805.59;5059772;28;20024;-57
2022/09/08 03:52:50;;;;;;;13.38;5.85;;;;;;;-145.01;100.00;64805.59;5050375;28;20032;-58
2022/09/08 03:55:15;;;;;;;11.75;5.45;;;;;;;-145.01;100.00;64805.59;5049714;28;20447;-53
2022/09/08 03:57:41;;;;;;;12.25;6.30;;;;;;;-145.01;100.00;64805.59;5069286;28;20100;-56
2022/09/08 04:00:09;;;;;;;9.70;4.85;;;;;;;-145.01;100.00;64805.59;5050368;28;20033;-54
2022/09/08 04:02:34;;;;;;;10.60;5.45;;;;;;;-145.01;100.00;64805.59;5051754;28;20556;-56
2022/09/08 04:05:00;;;;;;;13.65;5.97;;;;;;;-145.01;100.00;64805.59;5056851;28;20037;-56
2022/09/08 04:07:27;;;;;;;13.38;5.63;;;;;;;-145.01;100.00;64805.59;5053019;28;20075;-57
2022/09/08 04:09:53;;;;;;;10.82;5.80;;;;;;;-145.01;100.00;64805.59;5049471;28;20017;-56
2022/09/08 04:12:18;;;;;;;10.93;6.70;;;;;;;-145.01;100.00;64805.59;5053923;28;20021;-56
2022/09/08 04:14:46;;;;;;;12.98;6.78;;;;;;;-145.01;100.00;64805.59;5055006;28;20025;-55
2022/09/08 04:17:11;;;;;;;12.63;6.93;;;;;;;-145.01;100.00;64805.59;5052121;28;20387;-56
2022/09/08 04:19:37;;;;;;;18.25;7.18;;;;;;;-145.01;100.00;64805.59;5049774;28;20025;-56
2022/09/08 04:22:02;;;;;;;14.73;7.63;;;;;;;-145.01;100.00;64805.59;5056654;28;20028;-56
2022/09/08 04:24:28;;;;;;;11.70;6.93;;;;;;;-145.01;100.00;64805.59;5055660;28;20128;-56
2022/09/08 04:26:53;;;;;;;12.25;7.15;;;;;;;-145.01;100.00;64805.59;5050038;28;20073;-55
2022/09/08 04:29:19;;;;;;;13.88;7.07;;;;;;;-145.01;100.00;64805.59;5052917;28;20449;-54
2022/09/08 04:31:44;;;;;;;18.67;6.78;;;;;;;-145.01;100.00;64805.59;5058008;28;20033;-56
2022/09/08 04:34:10;;;;;;;13.88;6.72;;;;;;;-145.01;100.00;64805.59;5053660;28;20025;-55
2022/09/08 04:36:35;;;;;;;15.25;7.53;;;;;;;-145.01;100.00;64805.59;5055674;28;20060;-55
2022/09/08 04:39:01;;;;;;;12.38;7.03;;;;;;;-145.01;100.00;64805.59;5084261;28;20025;-55
2022/09/08 04:41:28;;;;;;;12.70;6.38;;;;;;;-145.01;100.00;64805.59;5063415;28;20071;-56
2022/09/08 04:43:54;;;;;;;13.85;7.03;;;;;;;-145.01;100.00;64805.59;5058322;28;20202;-56
2022/09/08 04:46:20;;;;;;;15.77;6.78;;;;;;;-145.01;100.00;64805.59;5056788;28;20044;-55
2022/09/08 04:48:46;;;;;;;12.35;7.20;;;;;;;-145.01;100.00;64805.59;5059592;28;20058;-54
2022/09/08 04:51:13;;;;;;;10.93;6.90;;;;;;;-145.01;100.00;64805.59;5059995;28;20056;-54
2022/09/08 04:53:39;;;;;;;14.00;7.38;;;;;;;-145.01;100.00;64805.59;5052859;28;20025;-55
2022/09/08 04:56:05;;;;;;;15.10;8.98;;;;;;;-145.01;100.00;64805.59;5053541;28;20031;-55
2022/09/08 04:58:31;;;;;;;12.80;8.25;;;;;;;-145.01;100.00;64805.59;5052963;28;20087;-52
2022/09/08 05:01:10;;;;;;;10.70;7.55;;;;;;;-145.01;100.00;64805.59;5059831;28;20098;-56
2022/09/08 05:03:36;;;;;;;15.25;7.68;;;;;;;-145.01;100.00;64805.59;5053787;28;20124;-56
2022/09/08 05:06:05;;;;;;;18.38;8.65;;;;;;;-145.01;100.00;64805.59;5062881;28;20028;-55
2022/09/08 05:08:31;;;;;;;16.17;8.13;;;;;;;-145.01;100.00;64805.59;5060257;28;20025;-55
2022/09/08 05:10:57;;;;;;;13.73;7.80;;;;;;;-145.01;100.00;64805.59;5062051;28;20515;-55
2022/09/08 05:13:22;;;;;;;13.80;7.63;;;;;;;-145.01;100.00;64805.59;5055519;28;20032;-56
2022/09/08 05:15:48;;;;;;;15.52;7.60;;;;;;;-145.01;100.00;64805.59;5053062;28;20451;-54
2022/09/08 05:18:13;;;;;;;15.85;7.47;;;;;;;-145.01;100.00;64805.59;5052894;28;20029;-56
2022/09/08 05:20:38;;;;;;;14.15;7.43;;;;;;;-145.01;100.00;64805.59;5057478;28;20032;-56
2022/09/08 05:23:05;;;;;;;12.93;7.57;;;;;;;-145.01;100.00;64805.59;5059244;28;20028;-55
2022/09/08 05:25:30;;;;;;;17.92;7.15;;;;;;;-145.01;100.00;64805.59;5058404;28;20032;-55
2022/09/08 05:27:55;;;;;;;13.55;6.43;;;;;;;-145.01;100.00;64805.59;5051920;28;20178;-55
2022/09/08 05:30:21;;;;;;;18.52;6.57;;;;;;;-145.01;100.00;64805.59;5060328;28;20021;-56
2022/09/08 05:32:46;;;;;;;13.52;6.60;;;;;;;-145.01;100.00;64805.59;5084773;28;20029;-54
2022/09/08 05:35:12;;;;;;;12.48;6.50;;;;;;;-145.01;100.00;64805.59;5053514;28;20029;-55
2022/09/08 05:37:37;;;;;;;15.32;7.22;;;;;;;-145.01;100.00;64805.59;5056960;28;20408;-55
2022/09/08 05:40:03;;;;;;;9.07;5.50;;;;;;;-145.01;100.00;64805.59;5057306;28;20031;-55
2022/09/08 05:42:29;;;;;;;11.32;6.55;;;;;;;-145.01;100.00;64805.59;5055960;28;20349;-54
2022/09/08 05:44:54;;;;;;;11.07;5.90;;;;;;;-145.01;100.00;64805.59;5059538;28;20037;-55
2022/09/08 05:47:20;;;;;;;13.60;6.10;;;;;;;-145.01;100.00;64805.59;5052015;28;20025;-55
2022/09/08 05:49:46;;;;;;;8.88;5.28;;;;;;;-145.01;100.00;64805.59;5051168;28;20025;-55
2022/09/08 05:52:12;;;;;;;10.18;6.50;;;;;;;-145.01;100.00;64805.59;5055633;28;20082;-54
2022/09/08 05:54:37;;;;;;;11.38;5.68;;;;;;;-145.01;100.00;64805.59;5053465;28;20020;-55
2022/09/08 05:57:03;;;;;;;12.73;6.00;;;;;;;-145.01;100.00;64805.59;5064683;28;20391;-55
2022/09/08 05:59:29;;;;;;;9.35;6.30;;;;;;;-145.01;100.00;64805.59;5060937;28;20032;-56
2022/09/08 06:01:54;;;;;;;14.50;5.97;;;;;;;-145.01;100.00;64805.59;5055675;28;20025;-55
2022/09/08 06:04:20;;;;;;;10.95;5.95;;;;;;;-145.01;100.00;64805.59;5057793;28;20059;-56
2022/09/08 06:06:46;;;;;;;10.65;6.68;;;;;;;-145.01;100.00;64805.59;5052035;28;20021;-55
2022/09/08 06:09:12;;;;;;;13.88;7.22;;;;;;;-145.01;100.00;64805.59;5057961;28;20060;-55
2022/09/08 06:11:38;;;;;;;15.45;7.75;;;;;;;-145.01;100.00;64805.59;5055411;28;20355;-55
2022/09/08 06:14:05;;;;;;;13.95;7.55;;;;;;;-145.01;100.00;64805.59;5050115;28;20035;-54
2022/09/08 06:16:31;;;;;;;12.88;7.88;;;;;;;-145.01;100.00;64805.59;5051962;28;20060;-54
2022/09/08 06:18:57;;;;;;;14.77;8.52;;;;;;;-145.01;100.00;64805.59;5058752;28;20028;-55
2022/09/08 06:21:30;;;;;;;11.68;8.23;;;;;;;-145.01;100.00;64805.59;5056149;28;20025;-55
2022/09/08 06:23:58;;;;;;;11.57;8.13;;;;;;;-145.01;100.00;64805.59;5050616;28;20025;-55
2022/09/08 06:26:58;;;;;;;15.00;8.38;;;;;;;-145.01;100.00;64805.59;5050364;28;20029;-57
2022/09/08 06:29:24;;;;;;;17.35;7.70;;;;;;;-145.01;100.00;64805.59;5051377;28;20483;-53
2022/09/08 06:32:04;;;;;;;12.20;6.95;;;;;;;-145.01;100.00;64805.59;5053620;28;20025;-57
2022/09/08 06:34:56;;;;;;;13.52;7.10;;;;;;;-145.01;100.00;64805.59;5048677;28;20033;-57
2022/09/08 06:37:35;;;;;;;10.68;6.75;;;;;;;-145.01;100.00;64805.59;5060448;28;20025;-54
2022/09/08 06:40:13;;;;;;;9.35;6.20;;;;;;;-145.01;100.00;64805.59;5055725;28;20021;-54
2022/09/08 06:43:25;;;;;;;12.95;6.25;;;;;;;-145.01;100.00;64805.59;5057609;28;20067;-59
2022/09/08 06:45:52;;;;;;;12.48;6.00;;;;;;;-145.01;100.00;64805.59;5055251;28;20048;-56
2022/09/08 06:48:28;;;;;;;8.50;5.15;;;;;;;-145.01;100.00;64805.59;5065202;28;20017;-54
2022/09/08 06:51:24;;;;;;;12.38;5.63;;;;;;;-145.01;100.00;64805.59;5058113;28;20028;-56
2022/09/08 06:54:08;;;;;;;10.90;5.50;;;;;;;-145.01;100.00;64805.59;5049545;28;20033;-56
2022/09/08 06:56:47;;;;;;;9.25;5.30;;;;;;;-145.01;100.00;64805.59;5054576;28;20021;-54
2022/09/08 06:59:19;;;;;;;13.07;5.82;;;;;;;-145.01;100.00;64805.59;5054254;28;20418;-56
2022/09/08 07:01:47;;;;;;;7.47;4.93;;;;;;;-145.01;100.00;64805.59;5054267;28;20055;-56
2022/09/08 07:04:35;;;;;;;9.65;4.70;;;;;;;-145.01;100.00;64805.59;5053337;28;20055;-56
2022/09/08 07:07:33;;;;;;;7.93;5.10;;;;;;;-145.01;100.00;64805.59;5049644;28;20066;-56
2022/09/08 07:10:35;;;;;;;8.50;4.32;;;;;;;-145.01;100.00;64805.59;5022757;28;20039;-56
2022/09/08 07:13:28;;;;;;;9.13;4.28;;;;;;;-145.01;100.00;64805.59;5050314;28;20082;-56
2022/09/08 07:16:12;;;;;;;6.88;5.10;;;;;;;-145.01;100.00;64805.59;5054502;28;20037;-56
2022/09/08 07:18:40;;;;;;;8.52;4.30;;;;;;;-145.01;100.00;64805.59;5052147;28;20896;-57
2022/09/08 07:21:43;;;;;;;8.90;3.70;;;;;;;-145.01;100.00;64805.59;5049575;28;20028;-58
2022/09/08 07:24:12;;;;;;;5.18;3.30;;;;;;;-145.01;100.00;64805.59;5084167;28;20028;-57
2022/09/08 07:26:49;;;;;;;8.65;3.28;;;;;;;-145.01;100.00;64805.59;5056107;28;20036;-57
2022/09/08 07:29:26;;;;;;;6.63;3.00;;;;;;;-145.01;100.00;64805.59;5089185;28;20025;-56
2022/09/08 07:31:52;;;;;;;8.50;2.75;;;;;;;-145.01;100.00;64805.59;5055111;28;21501;-55
2022/09/08 07:34:28;;;;;;;4.45;2.60;;;;;;;-145.01;100.00;64805.59;5060030;28;20032;-56
2022/09/08 07:37:13;;;;;;;5.57;2.35;;;;;;;-145.01;100.00;64805.59;5052960;28;20032;-56
2022/09/08 07:39:59;;;;;;;4.00;2.30;;;;;;;-145.01;100.00;64805.59;5049503;28;20095;-56
2022/09/08 07:42:25;;;;;;;4.93;2.03;;;;;;;-145.01;100.00;64805.59;5054500;28;20035;-56
2022/09/08 07:45:13;;;;;;;5.10;2.50;;;;;;;-145.01;100.00;64805.59;5050313;28;20033;-54
2022/09/08 07:47:46;;;;;;;3.72;2.10;;;;;;;-145.01;100.00;64805.59;5044170;28;20052;-55
2022/09/08 07:53:44;;;;;;;3.67;2.00;;;;;;;-145.01;100.00;64805.59;5054045;28;20518;-63
2022/09/08 07:56:36;;;;;;;2.63;1.70;;;;;;;-145.01;100.00;64805.59;5051951;28;20029;-55
2022/09/08 07:59:36;;;;;;;4.18;1.88;;;;;;;-145.01;100.00;64805.59;5079866;28;20044;-57
2022/09/08 08:02:24;;;;;;;4.05;2.10;;;;;;;-145.01;100.00;64805.59;4987728;28;20043;-56
2022/09/08 08:05:08;;;;;;;5.78;1.75;;;;;;;-145.01;100.00;64805.59;5047447;28;20087;-56
2022/09/08 08:07:51;;;;;;;2.28;1.60;;;;;;;-145.01;100.00;64805.59;5048666;28;20029;-58
2022/09/08 08:10:18;;;;;;;3.85;1.70;;;;;;;-145.01;100.00;64805.59;5056527;28;20550;-56
2022/09/08 08:12:58;;;;;;;2.60;1.70;;;;;;;-145.01;100.00;64805.59;5049949;28;20058;-56
2022/09/08 08:15:31;;;;;;;3.65;1.80;;;;;;;-145.01;100.00;64805.59;5057754;28;20029;-56
2022/09/08 08:17:57;;;;;;;4.18;2.05;;;;;;;-145.01;100.00;64805.59;5056838;28;20463;-56
2022/09/08 08:20:55;;;;;;;2.72;1.60;;;;;;;-145.01;100.00;64805.59;5049195;28;20047;-56
2022/09/08 08:23:25;;;;;;;2.67;1.40;;;;;;;-145.01;100.00;64805.59;5033425;28;20064;-57
2022/09/08 08:25:57;;;;;;;3.03;1.70;;;;;;;-145.01;100.00;64805.59;5049262;28;20036;-57
2022/09/08 08:28:22;;;;;;;3.05;1.40;;;;;;;-145.01;100.00;64805.59;5058649;28;20144;-57
2022/09/08 08:31:06;;;;;;;3.03;1.55;;;;;;;-145.01;100.00;64805.59;5048269;28;20470;-56
2022/09/08 08:33:38;;;;;;;3.22;1.48;;;;;;;-145.01;100.00;64805.59;5052068;28;20075;-57
2022/09/08 08:36:05;;;;;;;2.08;1.40;;;;;;;-145.01;100.00;64805.59;5045481;28;20481;-56
2022/09/08 08:38:35;;;;;;;7.60;1.60;;;;;;;-145.01;100.00;64805.59;5056624;28;20024;-55
2022/09/08 08:41:02;;;;;;;3.20;1.52;;;;;;;-145.01;100.00;64805.59;5033168;28;20533;-55
2022/09/08 08:43:50;;;;;;;6.13;1.70;;;;;;;-145.01;100.00;64805.59;5056085;28;20021;-55
2022/09/08 08:46:27;;;;;;;1.98;1.20;;;;;;;-145.01;100.00;64805.59;5055697;28;20067;-56
2022/09/08 08:49:02;;;;;;;4.65;1.60;;;;;;;-145.01;100.00;64805.59;5047250;28;20028;-55
2022/09/08 08:51:46;;;;;;;3.33;1.50;;;;;;;-145.01;100.00;64805.59;5057413;28;20028;-55
2022/09/08 08:54:47;;;;;;;3.58;1.55;;;;;;;-145.01;100.00;64805.59;5057486;28;20055;-56
2022/09/08 08:57:36;;;;;;;2.95;1.35;;;;;;;-145.01;100.00;64805.59;5044815;28;20037;-54
2022/09/08 09:00:02;;;;;;;2.97;1.42;;;;;;;-145.01;100.00;64805.59;5050093;28;20036;-54
2022/09/08 09:02:57;;;;;;;4.55;1.52;;;;;;;-145.01;100.00;64805.59;5055186;28;20094;-55
2022/09/08 09:05:54;;;;;;;3.10;1.40;;;;;;;-145.01;100.00;64805.59;5045276;28;20025;-57
2022/09/08 09:08:24;;;;;;;7.43;1.50;;;;;;;-145.01;100.00;64805.59;5053080;28;20021;-56
2022/09/08 09:11:10;;;;;;;5.30;1.55;;;;;;;-145.01;100.00;64805.59;5058896;28;20020;-56
2022/09/08 09:13:48;;;;;;;4.00;1.70;;;;;;;-145.01;100.00;64805.59;5051372;28;20462;-56
2022/09/08 09:16:22;;;;;;;2.65;1.30;;;;;;;-145.01;100.00;64805.59;5049862;28;20476;-54
2022/09/08 09:19:18;;;;;;;5.68;1.60;;;;;;;-145.01;100.00;64805.59;5049995;28;20433;-56
2022/09/08 09:22:08;;;;;;;2.80;1.50;;;;;;;-145.01;100.00;64805.59;5056020;28;20033;-56
2022/09/08 09:24:45;;;;;;;3.50;1.38;;;;;;;-145.01;100.00;64805.59;5053121;28;20518;-56
2022/09/08 09:27:30;;;;;;;8.82;1.90;;;;;;;-145.01;100.00;64805.59;5048651;28;20102;-54
2022/09/08 09:30:26;;;;;;;4.20;1.70;;;;;;;-145.01;100.00;64805.59;5037851;28;20498;-56
2022/09/08 09:33:14;;;;;;;3.38;1.67;;;;;;;-145.01;100.00;64805.59;5053602;28;20037;-56
2022/09/08 09:36:17;;;;;;;4.07;1.55;;;;;;;-145.01;100.00;64805.59;5051585;28;20095;-56
2022/09/08 09:39:00;;;;;;;6.75;1.60;;;;;;;-145.01;100.00;64805.59;5050867;28;20048;-57
2022/09/08 09:41:50;;;;;;;3.88;1.40;;;;;;;-145.01;100.00;64805.59;5051228;28;20032;-56
2022/09/08 09:44:31;;;;;;;4.50;1.60;;;;;;;-145.01;100.00;64805.59;5050259;28;20047;-54
2022/09/08 09:46:59;;;;;;;3.33;1.35;;;;;;;-145.01;100.00;64805.59;5051285;28;20065;-55
2022/09/08 09:49:25;;;;;;;3.85;1.17;;;;;;;-145.01;100.00;64805.59;5058118;28;20037;-54
2022/09/08 09:52:12;;;;;;;5.25;1.45;;;;;;;-145.01;100.00;64805.59;5062145;28;20036;-56
2022/09/08 09:54:53;;;;;;;3.78;1.80;;;;;;;-145.01;100.00;64805.59;5061345;28;20047;-55
2022/09/08 09:57:37;;;;;;;3.35;1.40;;;;;;;-145.01;100.00;64805.59;5064689;28;20173;-56
2022/09/08 10:00:11;;;;;;;4.32;1.42;;;;;;;-145.01;100.00;64805.59;5055050;28;20043;-56
2022/09/08 10:03:06;;;;;;;4.45;1.30;;;;;;;-145.01;100.00;64805.59;5050451;28;20052;-57
2022/09/08 10:05:50;;;;;;;2.75;1.40;;;;;;;-145.01;100.00;64805.59;5084196;28;20074;-55
2022/09/08 10:08:53;;;;;;;2.38;1.02;;;;;;;-145.01;100.00;64805.59;5059201;28;20044;-52
2022/09/08 10:11:32;;;;;;;4.07;1.40;;;;;;;-145.01;100.00;64805.59;5058909;28;20087;-58
2022/09/08 10:14:18;;;;;;;4.43;1.35;;;;;;;-145.01;100.00;64805.59;5050702;28;20059;-56
2022/09/08 10:17:11;;;;;;;3.75;1.30;;;;;;;-145.01;100.00;64805.59;5049975;28;20091;-56
2022/09/08 10:20:11;;;;;;;4.97;1.38;;;;;;;-145.01;100.00;64805.59;5054730;28;20491;-56
2022/09/08 10:22:54;;;;;;;4.65;1.33;;;;;;;-145.01;100.00;64805.59;5057518;28;20029;-56
2022/09/08 10:25:47;;;;;;;3.05;1.40;;;;;;;-145.01;100.00;64805.59;5056352;28;20388;-55
2022/09/08 10:28:47;;;;;;;4.57;1.40;;;;;;;-145.01;100.00;64805.59;5030654;28;20056;-56
2022/09/08 10:31:28;;;;;;;3.50;1.15;;;;;;;-145.01;100.00;64805.59;5051095;28;20029;-56
2022/09/08 10:34:18;;;;;;;3.22;1.27;;;;;;;-145.01;100.00;64805.59;5052096;28;20032;-56
2022/09/08 10:37:06;;;;;;;3.88;1.42;;;;;;;-145.01;100.00;64805.59;5048655;28;20025;-56
2022/09/08 10:39:42;;;;;;;4.40;1.40;;;;;;;-145.01;100.00;64805.59;5049992;28;20035;-54
2022/09/08 10:42:19;;;;;;;4.80;1.25;;;;;;;-145.01;100.00;64805.59;5056977;28;20041;-54
2022/09/08 10:44:54;;;;;;;1.73;1.20;;;;;;;-145.01;100.00;64805.59;5053057;28;20024;-56
2022/09/08 10:47:41;;;;;;;3.03;1.00;;;;;;;-145.01;100.00;64805.59;5053980;28;20033;-56
2022/09/08 10:50:25;;;;;;;2.42;1.00;;;;;;;-145.01;100.00;64805.59;5063383;28;20028;-55
2022/09/08 10:53:24;;;;;;;3.05;1.30;;;;;;;-145.01;100.00;64805.59;5061190;28;20036;-56
2022/09/08 10:56:21;;;;;;;4.75;1.40;;;;;;;-145.01;100.00;64805.59;5050571;28;20033;-56
2022/09/08 10:58:52;;;;;;;4.57;1.65;;;;;;;-145.01;100.00;64805.59;5048437;28;20028;-54
2022/09/08 11:01:45;;;;;;;5.30;1.30;;;;;;;-145.01;100.00;64805.59;5049231;28;20078;-55
2022/09/08 11:04:38;;;;;;;4.65;1.10;;;;;;;-145.01;100.00;64805.59;5056186;28;20049;-55
2022/09/08 11:07:25;;;;;;;2.53;1.20;;;;;;;-145.01;100.00;64805.59;5056006;28;20033;-55
2022/09/08 11:09:59;;;;;;;3.05;1.10;;;;;;;-145.01;100.00;64805.59;5060505;28;20754;-55
2022/09/08 11:12:45;;;;;;;2.83;1.17;;;;;;;-145.01;100.00;64805.59;5055063;28;20115;-54
2022/09/08 11:15:26;;;;;;;3.70;1.38;;;;;;;-145.01;100.00;64805.59;5048676;28;20043;-54
2022/09/08 11:17:52;;;;;;;3.78;1.30;;;;;;;-145.01;100.00;64805.59;5049958;28;20028;-56
2022/09/08 11:20:24;;;;;;;1.77;1.10;;;;;;;-145.01;100.00;64805.59;5048840;28;20025;-52
2022/09/08 11:22:59;;;;;;;3.67;1.30;;;;;;;-145.01;100.00;64805.59;5048799;28;20039;-55
2022/09/08 11:25:42;;;;;;;1.52;1.00;;;;;;;-145.01;100.00;64805.59;5047530;28;20025;-55
2022/09/08 11:28:23;;;;;;;2.15;1.10;;;;;;;-145.01;100.00;64805.59;5047820;28;20071;-55
2022/09/08 11:30:52;;;;;;;3.25;1.40;;;;;;;-145.01;100.00;64805.59;5053810;28;20095;-55
2022/09/08 11:33:39;;;;;;;5.63;1.70;;;;;;;-145.01;100.00;64805.59;5054611;28;20539;-56
2022/09/08 11:36:28;;;;;;;1.38;1.20;;;;;;;-145.01;100.00;64805.59;5051343;28;20040;-56
2022/09/08 11:39:13;;;;;;;3.22;1.40;;;;;;;-145.01;100.00;64805.59;5047436;28;20548;-56
2022/09/08 11:41:55;;;;;;;5.78;1.60;;;;;;;-145.01;100.00;64805.59;5060726;28;20503;-54
2022/09/08 11:44:37;;;;;;;5.20;1.50;;;;;;;-145.01;100.00;64805.59;5053688;28;20036;-59